Aviation Digital Data Service (ADDS)

Output produced by METARs form (2253 UTC 31 October 2014)
found at http://aviationweather.gov/adds/metars/
 
KSSI 311722Z 3118/0118 33009KT P6SM SCT040 
     FM010000 27006KT P6SM SKC 
     FM010800 29014G24KT P6SM SCT035 
     FM011400 30025G35KT P6SM SCT050